sensor_id;sensor_type;location;lat;lon;timestamp;P1;durP1;ratioP1;P2;durP2;ratioP2
51558;SDS011;61650;48.882;2.092;2023-02-28T00:00:06;14.10;;;9.13;;
51558;SDS011;61650;48.882;2.092;2023-02-28T00:02:35;11.70;;;8.63;;
51558;SDS011;61650;48.882;2.092;2023-02-28T00:05:02;10.38;;;8.20;;
51558;SDS011;61650;48.882;2.092;2023-02-28T00:07:29;10.02;;;8.13;;
51558;SDS011;61650;48.882;2.092;2023-02-28T00:09:55;13.40;;;8.32;;
51558;SDS011;61650;48.882;2.092;2023-02-28T00:12:21;10.10;;;8.00;;
51558;SDS011;61650;48.882;2.092;2023-02-28T00:14:47;10.10;;;7.97;;
51558;SDS011;61650;48.882;2.092;2023-02-28T00:17:12;11.00;;;7.80;;
51558;SDS011;61650;48.882;2.092;2023-02-28T00:19:38;9.07;;;6.90;;
51558;SDS011;61650;48.882;2.092;2023-02-28T00:22:03;11.27;;;8.50;;
51558;SDS011;61650;48.882;2.092;2023-02-28T00:24:29;12.90;;;7.93;;
51558;SDS011;61650;48.882;2.092;2023-02-28T00:26:55;9.40;;;7.70;;
51558;SDS011;61650;48.882;2.092;2023-02-28T00:29:20;12.53;;;7.27;;
51558;SDS011;61650;48.882;2.092;2023-02-28T00:31:46;9.20;;;7.20;;
51558;SDS011;61650;48.882;2.092;2023-02-28T00:34:12;9.23;;;6.87;;
51558;SDS011;61650;48.882;2.092;2023-02-28T00:36:37;8.40;;;6.97;;
51558;SDS011;61650;48.882;2.092;2023-02-28T00:39:03;8.37;;;6.43;;
51558;SDS011;61650;48.882;2.092;2023-02-28T00:41:29;8.90;;;6.83;;
51558;SDS011;61650;48.882;2.092;2023-02-28T00:43:54;12.33;;;7.90;;
51558;SDS011;61650;48.882;2.092;2023-02-28T00:46:20;10.17;;;7.90;;
51558;SDS011;61650;48.882;2.092;2023-02-28T00:48:45;9.30;;;7.23;;
51558;SDS011;61650;48.882;2.092;2023-02-28T00:51:11;9.47;;;7.77;;
51558;SDS011;61650;48.882;2.092;2023-02-28T00:53:37;7.63;;;6.70;;
51558;SDS011;61650;48.882;2.092;2023-02-28T00:56:02;8.83;;;6.93;;
51558;SDS011;61650;48.882;2.092;2023-02-28T00:58:28;8.50;;;7.00;;
51558;SDS011;61650;48.882;2.092;2023-02-28T01:00:54;10.47;;;7.00;;
51558;SDS011;61650;48.882;2.092;2023-02-28T01:03:20;9.77;;;6.75;;
51558;SDS011;61650;48.882;2.092;2023-02-28T01:05:47;10.90;;;7.43;;
51558;SDS011;61650;48.882;2.092;2023-02-28T01:08:13;10.80;;;7.77;;
51558;SDS011;61650;48.882;2.092;2023-02-28T01:10:40;8.80;;;7.15;;
51558;SDS011;61650;48.882;2.092;2023-02-28T01:13:06;9.52;;;7.05;;
51558;SDS011;61650;48.882;2.092;2023-02-28T01:15:32;9.97;;;7.37;;
51558;SDS011;61650;48.882;2.092;2023-02-28T01:17:58;9.65;;;7.32;;
51558;SDS011;61650;48.882;2.092;2023-02-28T01:20:24;8.50;;;6.40;;
51558;SDS011;61650;48.882;2.092;2023-02-28T01:22:49;7.53;;;6.73;;
51558;SDS011;61650;48.882;2.092;2023-02-28T01:25:15;8.03;;;6.73;;
51558;SDS011;61650;48.882;2.092;2023-02-28T01:27:41;10.47;;;7.63;;
51558;SDS011;61650;48.882;2.092;2023-02-28T01:30:07;9.00;;;6.97;;
51558;SDS011;61650;48.882;2.092;2023-02-28T01:32:34;8.48;;;6.03;;
51558;SDS011;61650;48.882;2.092;2023-02-28T01:35:00;10.00;;;6.90;;
51558;SDS011;61650;48.882;2.092;2023-02-28T01:37:25;12.40;;;7.30;;
51558;SDS011;61650;48.882;2.092;2023-02-28T01:39:52;11.80;;;7.95;;
51558;SDS011;61650;48.882;2.092;2023-02-28T01:42:17;8.00;;;6.33;;
51558;SDS011;61650;48.882;2.092;2023-02-28T01:47:46;9.10;;;6.05;;
51558;SDS011;61650;48.882;2.092;2023-02-28T01:50:16;8.10;;;7.00;;
51558;SDS011;61650;48.882;2.092;2023-02-28T01:52:45;9.05;;;7.00;;
51558;SDS011;61650;48.882;2.092;2023-02-28T01:55:13;8.93;;;6.88;;
51558;SDS011;61650;48.882;2.092;2023-02-28T01:57:42;8.10;;;6.20;;
51558;SDS011;61650;48.882;2.092;2023-02-28T02:00:13;10.05;;;6.55;;
51558;SDS011;61650;48.882;2.092;2023-02-28T02:02:41;9.30;;;6.68;;
51558;SDS011;61650;48.882;2.092;2023-02-28T02:05:15;7.22;;;6.25;;
51558;SDS011;61650;48.882;2.092;2023-02-28T02:07:50;8.00;;;6.60;;
51558;SDS011;61650;48.882;2.092;2023-02-28T02:10:24;8.20;;;6.18;;
51558;SDS011;61650;48.882;2.092;2023-02-28T02:27:03;8.35;;;6.50;;
51558;SDS011;61650;48.882;2.092;2023-02-28T02:35:08;9.30;;;6.70;;
51558;SDS011;61650;48.882;2.092;2023-02-28T02:38:06;9.93;;;6.93;;
51558;SDS011;61650;48.882;2.092;2023-02-28T02:40:41;8.20;;;6.32;;
51558;SDS011;61650;48.882;2.092;2023-02-28T02:45:55;8.32;;;6.75;;
51558;SDS011;61650;48.882;2.092;2023-02-28T02:48:25;9.15;;;7.18;;
51558;SDS011;61650;48.882;2.092;2023-02-28T02:50:55;9.90;;;7.00;;
51558;SDS011;61650;48.882;2.092;2023-02-28T02:53:26;9.80;;;6.70;;
51558;SDS011;61650;48.882;2.092;2023-02-28T02:55:55;11.35;;;6.72;;
51558;SDS011;61650;48.882;2.092;2023-02-28T02:58:24;10.73;;;7.32;;
51558;SDS011;61650;48.882;2.092;2023-02-28T03:00:58;9.95;;;7.10;;
51558;SDS011;61650;48.882;2.092;2023-02-28T03:03:26;9.10;;;6.97;;
51558;SDS011;61650;48.882;2.092;2023-02-28T03:05:55;8.90;;;6.47;;
51558;SDS011;61650;48.882;2.092;2023-02-28T03:08:22;9.10;;;6.93;;
51558;SDS011;61650;48.882;2.092;2023-02-28T03:10:49;11.30;;;7.73;;
51558;SDS011;61650;48.882;2.092;2023-02-28T03:13:36;9.43;;;7.03;;
51558;SDS011;61650;48.882;2.092;2023-02-28T03:25:03;9.77;;;7.60;;
51558;SDS011;61650;48.882;2.092;2023-02-28T03:30:43;11.07;;;7.70;;
51558;SDS011;61650;48.882;2.092;2023-02-28T03:33:24;9.68;;;7.35;;
51558;SDS011;61650;48.882;2.092;2023-02-28T03:36:05;9.95;;;7.55;;
51558;SDS011;61650;48.882;2.092;2023-02-28T03:38:36;9.35;;;7.30;;
51558;SDS011;61650;48.882;2.092;2023-02-28T03:41:15;11.57;;;8.13;;
51558;SDS011;61650;48.882;2.092;2023-02-28T03:43:48;10.25;;;6.90;;
51558;SDS011;61650;48.882;2.092;2023-02-28T03:46:26;11.70;;;8.05;;
51558;SDS011;61650;48.882;2.092;2023-02-28T03:49:09;9.30;;;6.85;;
51558;SDS011;61650;48.882;2.092;2023-02-28T03:51:48;11.52;;;7.90;;
51558;SDS011;61650;48.882;2.092;2023-02-28T03:54:17;10.45;;;7.50;;
51558;SDS011;61650;48.882;2.092;2023-02-28T03:59:43;11.40;;;7.35;;
51558;SDS011;61650;48.882;2.092;2023-02-28T04:02:12;12.68;;;7.93;;
51558;SDS011;61650;48.882;2.092;2023-02-28T04:04:38;11.23;;;7.53;;
51558;SDS011;61650;48.882;2.092;2023-02-28T04:07:13;10.15;;;7.82;;
51558;SDS011;61650;48.882;2.092;2023-02-28T04:09:39;10.13;;;6.28;;
51558;SDS011;61650;48.882;2.092;2023-02-28T04:12:05;9.10;;;6.30;;
51558;SDS011;61650;48.882;2.092;2023-02-28T04:14:31;12.00;;;7.30;;
51558;SDS011;61650;48.882;2.092;2023-02-28T04:16:56;9.23;;;6.70;;
51558;SDS011;61650;48.882;2.092;2023-02-28T04:19:22;11.53;;;7.00;;
51558;SDS011;61650;48.882;2.092;2023-02-28T04:21:48;9.80;;;6.03;;
51558;SDS011;61650;48.882;2.092;2023-02-28T04:24:17;9.30;;;6.95;;
51558;SDS011;61650;48.882;2.092;2023-02-28T04:26:47;9.45;;;7.25;;
51558;SDS011;61650;48.882;2.092;2023-02-28T04:29:18;10.18;;;7.28;;
51558;SDS011;61650;48.882;2.092;2023-02-28T04:31:46;9.30;;;7.22;;
51558;SDS011;61650;48.882;2.092;2023-02-28T04:34:12;12.07;;;7.40;;
51558;SDS011;61650;48.882;2.092;2023-02-28T04:36:38;11.30;;;6.90;;
51558;SDS011;61650;48.882;2.092;2023-02-28T04:39:04;11.03;;;7.40;;
51558;SDS011;61650;48.882;2.092;2023-02-28T04:41:29;10.20;;;7.63;;
51558;SDS011;61650;48.882;2.092;2023-02-28T04:43:55;11.97;;;7.73;;
51558;SDS011;61650;48.882;2.092;2023-02-28T04:46:21;8.47;;;6.27;;
51558;SDS011;61650;48.882;2.092;2023-02-28T04:48:47;12.30;;;7.25;;
51558;SDS011;61650;48.882;2.092;2023-02-28T04:51:14;10.03;;;7.23;;
51558;SDS011;61650;48.882;2.092;2023-02-28T04:53:42;10.00;;;6.93;;
51558;SDS011;61650;48.882;2.092;2023-02-28T04:56:08;10.98;;;7.53;;
51558;SDS011;61650;48.882;2.092;2023-02-28T04:58:36;10.32;;;6.80;;
51558;SDS011;61650;48.882;2.092;2023-02-28T05:01:24;8.00;;;6.60;;
51558;SDS011;61650;48.882;2.092;2023-02-28T05:03:54;10.10;;;7.20;;
51558;SDS011;61650;48.882;2.092;2023-02-28T05:06:21;10.85;;;7.38;;
51558;SDS011;61650;48.882;2.092;2023-02-28T05:08:51;10.75;;;6.70;;
51558;SDS011;61650;48.882;2.092;2023-02-28T05:11:21;11.63;;;6.93;;
51558;SDS011;61650;48.882;2.092;2023-02-28T05:13:49;11.07;;;7.15;;
51558;SDS011;61650;48.882;2.092;2023-02-28T05:16:16;8.25;;;6.88;;
51558;SDS011;61650;48.882;2.092;2023-02-28T05:18:42;19.05;;;7.90;;
51558;SDS011;61650;48.882;2.092;2023-02-28T05:23:49;11.07;;;6.78;;
51558;SDS011;61650;48.882;2.092;2023-02-28T05:26:15;10.65;;;7.70;;
51558;SDS011;61650;48.882;2.092;2023-02-28T05:28:41;14.43;;;8.03;;
51558;SDS011;61650;48.882;2.092;2023-02-28T05:31:07;13.00;;;8.77;;
51558;SDS011;61650;48.882;2.092;2023-02-28T05:33:35;12.02;;;8.07;;
51558;SDS011;61650;48.882;2.092;2023-02-28T05:36:01;13.70;;;8.87;;
51558;SDS011;61650;48.882;2.092;2023-02-28T05:38:27;15.60;;;8.57;;
51558;SDS011;61650;48.882;2.092;2023-02-28T05:40:52;13.80;;;8.30;;
51558;SDS011;61650;48.882;2.092;2023-02-28T05:43:18;15.67;;;9.30;;
51558;SDS011;61650;48.882;2.092;2023-02-28T05:45:44;13.80;;;8.17;;
51558;SDS011;61650;48.882;2.092;2023-02-28T05:48:09;11.83;;;8.63;;
51558;SDS011;61650;48.882;2.092;2023-02-28T05:50:35;13.65;;;8.52;;
51558;SDS011;61650;48.882;2.092;2023-02-28T05:53:01;13.07;;;8.43;;
51558;SDS011;61650;48.882;2.092;2023-02-28T05:55:27;15.70;;;9.20;;
51558;SDS011;61650;48.882;2.092;2023-02-28T05:57:52;10.73;;;8.23;;
51558;SDS011;61650;48.882;2.092;2023-02-28T06:00:18;14.73;;;9.30;;
51558;SDS011;61650;48.882;2.092;2023-02-28T06:02:44;13.40;;;8.80;;
51558;SDS011;61650;48.882;2.092;2023-02-28T06:05:13;13.83;;;8.67;;
51558;SDS011;61650;48.882;2.092;2023-02-28T06:07:40;16.90;;;9.15;;
51558;SDS011;61650;48.882;2.092;2023-02-28T06:10:06;12.40;;;9.03;;
51558;SDS011;61650;48.882;2.092;2023-02-28T06:12:33;14.75;;;9.82;;
51558;SDS011;61650;48.882;2.092;2023-02-28T06:14:58;14.40;;;9.77;;
51558;SDS011;61650;48.882;2.092;2023-02-28T06:17:24;16.27;;;9.43;;
51558;SDS011;61650;48.882;2.092;2023-02-28T06:19:50;14.23;;;9.17;;
51558;SDS011;61650;48.882;2.092;2023-02-28T06:22:15;13.90;;;9.80;;
51558;SDS011;61650;48.882;2.092;2023-02-28T06:24:41;13.83;;;9.57;;
51558;SDS011;61650;48.882;2.092;2023-02-28T06:27:06;13.90;;;9.80;;
51558;SDS011;61650;48.882;2.092;2023-02-28T06:29:32;12.60;;;8.43;;
51558;SDS011;61650;48.882;2.092;2023-02-28T06:31:59;13.15;;;8.32;;
51558;SDS011;61650;48.882;2.092;2023-02-28T06:34:25;13.18;;;9.10;;
51558;SDS011;61650;48.882;2.092;2023-02-28T06:36:51;13.48;;;8.95;;
51558;SDS011;61650;48.882;2.092;2023-02-28T06:39:17;12.70;;;8.93;;
51558;SDS011;61650;48.882;2.092;2023-02-28T06:41:43;16.57;;;9.30;;
51558;SDS011;61650;48.882;2.092;2023-02-28T06:44:16;16.73;;;9.02;;
51558;SDS011;61650;48.882;2.092;2023-02-28T06:46:43;15.30;;;9.05;;
51558;SDS011;61650;48.882;2.092;2023-02-28T06:49:10;13.95;;;9.30;;
51558;SDS011;61650;48.882;2.092;2023-02-28T06:51:37;14.15;;;10.13;;
51558;SDS011;61650;48.882;2.092;2023-02-28T06:54:04;15.23;;;9.27;;
51558;SDS011;61650;48.882;2.092;2023-02-28T06:56:33;14.80;;;9.07;;
51558;SDS011;61650;48.882;2.092;2023-02-28T06:59:00;11.95;;;8.45;;
51558;SDS011;61650;48.882;2.092;2023-02-28T07:01:26;14.13;;;8.90;;
51558;SDS011;61650;48.882;2.092;2023-02-28T07:03:53;15.50;;;9.73;;
51558;SDS011;61650;48.882;2.092;2023-02-28T07:06:19;15.88;;;9.38;;
51558;SDS011;61650;48.882;2.092;2023-02-28T07:08:47;13.55;;;8.48;;
51558;SDS011;61650;48.882;2.092;2023-02-28T07:11:13;13.60;;;10.05;;
51558;SDS011;61650;48.882;2.092;2023-02-28T07:13:39;11.33;;;8.43;;
51558;SDS011;61650;48.882;2.092;2023-02-28T07:16:06;17.40;;;10.67;;
51558;SDS011;61650;48.882;2.092;2023-02-28T07:18:34;16.58;;;10.85;;
51558;SDS011;61650;48.882;2.092;2023-02-28T07:21:04;16.65;;;9.30;;
51558;SDS011;61650;48.882;2.092;2023-02-28T07:23:31;15.05;;;10.27;;
51558;SDS011;61650;48.882;2.092;2023-02-28T07:25:57;17.80;;;9.87;;
51558;SDS011;61650;48.882;2.092;2023-02-28T07:28:23;13.43;;;9.63;;
51558;SDS011;61650;48.882;2.092;2023-02-28T07:30:49;16.92;;;10.30;;
51558;SDS011;61650;48.882;2.092;2023-02-28T07:33:15;14.97;;;10.67;;
51558;SDS011;61650;48.882;2.092;2023-02-28T07:35:40;13.70;;;10.40;;
51558;SDS011;61650;48.882;2.092;2023-02-28T07:38:06;19.23;;;11.30;;
51558;SDS011;61650;48.882;2.092;2023-02-28T07:40:32;16.08;;;10.30;;
51558;SDS011;61650;48.882;2.092;2023-02-28T07:43:02;18.20;;;10.65;;
51558;SDS011;61650;48.882;2.092;2023-02-28T07:45:28;16.02;;;10.45;;
51558;SDS011;61650;48.882;2.092;2023-02-28T07:47:54;16.58;;;11.52;;
51558;SDS011;61650;48.882;2.092;2023-02-28T07:50:21;20.15;;;11.90;;
51558;SDS011;61650;48.882;2.092;2023-02-28T07:52:47;20.48;;;12.93;;
51558;SDS011;61650;48.882;2.092;2023-02-28T07:55:12;17.57;;;12.03;;
51558;SDS011;61650;48.882;2.092;2023-02-28T07:57:39;17.08;;;11.10;;
51558;SDS011;61650;48.882;2.092;2023-02-28T08:00:06;18.08;;;11.95;;
51558;SDS011;61650;48.882;2.092;2023-02-28T08:02:37;22.20;;;13.23;;
51558;SDS011;61650;48.882;2.092;2023-02-28T08:05:03;20.07;;;11.80;;
51558;SDS011;61650;48.882;2.092;2023-02-28T08:07:30;20.08;;;13.23;;
51558;SDS011;61650;48.882;2.092;2023-02-28T08:09:55;19.73;;;12.10;;
51558;SDS011;61650;48.882;2.092;2023-02-28T08:12:21;18.03;;;12.20;;
51558;SDS011;61650;48.882;2.092;2023-02-28T08:14:46;18.60;;;12.23;;
51558;SDS011;61650;48.882;2.092;2023-02-28T08:17:12;21.20;;;13.00;;
51558;SDS011;61650;48.882;2.092;2023-02-28T08:19:38;20.50;;;13.63;;
51558;SDS011;61650;48.882;2.092;2023-02-28T08:22:03;19.00;;;13.90;;
51558;SDS011;61650;48.882;2.092;2023-02-28T08:24:29;17.83;;;11.67;;
51558;SDS011;61650;48.882;2.092;2023-02-28T08:26:55;19.50;;;12.10;;
51558;SDS011;61650;48.882;2.092;2023-02-28T08:29:21;22.07;;;12.97;;
51558;SDS011;61650;48.882;2.092;2023-02-28T08:31:46;16.90;;;12.23;;
51558;SDS011;61650;48.882;2.092;2023-02-28T08:34:13;18.63;;;12.30;;
51558;SDS011;61650;48.882;2.092;2023-02-28T08:36:40;20.73;;;12.45;;
51558;SDS011;61650;48.882;2.092;2023-02-28T08:39:06;15.73;;;12.00;;
51558;SDS011;61650;48.882;2.092;2023-02-28T08:41:32;17.20;;;11.40;;
51558;SDS011;61650;48.882;2.092;2023-02-28T08:43:58;18.00;;;12.37;;
51558;SDS011;61650;48.882;2.092;2023-02-28T08:46:25;18.35;;;12.15;;
51558;SDS011;61650;48.882;2.092;2023-02-28T08:48:52;17.92;;;11.55;;
51558;SDS011;61650;48.882;2.092;2023-02-28T08:51:18;18.90;;;12.07;;
51558;SDS011;61650;48.882;2.092;2023-02-28T08:53:47;13.00;;;10.50;;
51558;SDS011;61650;48.882;2.092;2023-02-28T08:56:14;14.60;;;11.13;;
51558;SDS011;61650;48.882;2.092;2023-02-28T08:58:42;16.58;;;10.68;;
51558;SDS011;61650;48.882;2.092;2023-02-28T09:03:39;14.32;;;11.35;;
51558;SDS011;61650;48.882;2.092;2023-02-28T09:06:06;15.60;;;11.63;;
51558;SDS011;61650;48.882;2.092;2023-02-28T09:08:32;17.55;;;12.05;;
51558;SDS011;61650;48.882;2.092;2023-02-28T09:10:58;15.20;;;10.27;;
51558;SDS011;61650;48.882;2.092;2023-02-28T09:13:24;15.47;;;10.77;;
51558;SDS011;61650;48.882;2.092;2023-02-28T09:15:51;13.25;;;10.65;;
51558;SDS011;61650;48.882;2.092;2023-02-28T09:18:16;14.43;;;11.37;;
51558;SDS011;61650;48.882;2.092;2023-02-28T09:20:42;17.67;;;11.87;;
51558;SDS011;61650;48.882;2.092;2023-02-28T09:23:09;16.75;;;11.52;;
51558;SDS011;61650;48.882;2.092;2023-02-28T09:25:36;13.68;;;10.45;;
51558;SDS011;61650;48.882;2.092;2023-02-28T09:28:02;14.63;;;10.70;;
51558;SDS011;61650;48.882;2.092;2023-02-28T09:30:28;15.48;;;10.63;;
51558;SDS011;61650;48.882;2.092;2023-02-28T09:32:55;14.40;;;10.48;;
51558;SDS011;61650;48.882;2.092;2023-02-28T09:35:21;13.67;;;9.73;;
51558;SDS011;61650;48.882;2.092;2023-02-28T09:37:51;13.63;;;10.23;;
51558;SDS011;61650;48.882;2.092;2023-02-28T09:40:17;13.23;;;10.70;;
51558;SDS011;61650;48.882;2.092;2023-02-28T09:42:47;17.77;;;10.20;;
51558;SDS011;61650;48.882;2.092;2023-02-28T09:45:37;15.07;;;10.85;;
51558;SDS011;61650;48.882;2.092;2023-02-28T09:48:14;12.23;;;9.73;;
51558;SDS011;61650;48.882;2.092;2023-02-28T09:50:48;11.20;;;10.00;;
51558;SDS011;61650;48.882;2.092;2023-02-28T09:56:01;10.77;;;8.85;;
51558;SDS011;61650;48.882;2.092;2023-02-28T09:58:53;14.35;;;10.18;;
51558;SDS011;61650;48.882;2.092;2023-02-28T10:06:46;12.13;;;9.15;;
51558;SDS011;61650;48.882;2.092;2023-02-28T10:09:17;11.20;;;8.52;;
51558;SDS011;61650;48.882;2.092;2023-02-28T10:11:52;13.63;;;9.57;;
51558;SDS011;61650;48.882;2.092;2023-02-28T10:14:23;13.00;;;9.32;;
51558;SDS011;61650;48.882;2.092;2023-02-28T10:19:39;13.55;;;8.82;;
51558;SDS011;61650;48.882;2.092;2023-02-28T10:22:11;9.52;;;7.78;;
51558;SDS011;61650;48.882;2.092;2023-02-28T10:27:21;9.65;;;8.63;;
51558;SDS011;61650;48.882;2.092;2023-02-28T10:29:52;11.10;;;7.55;;
51558;SDS011;61650;48.882;2.092;2023-02-28T10:32:24;12.20;;;8.27;;
51558;SDS011;61650;48.882;2.092;2023-02-28T10:37:43;6.45;;;5.45;;
51558;SDS011;61650;48.882;2.092;2023-02-28T10:40:56;10.00;;;5.80;;
51558;SDS011;61650;48.882;2.092;2023-02-28T10:43:04;7.03;;;4.70;;
51558;SDS011;61650;48.882;2.092;2023-02-28T10:45:53;5.78;;;4.90;;
51558;SDS011;61650;48.882;2.092;2023-02-28T10:48:48;6.55;;;4.80;;
51558;SDS011;61650;48.882;2.092;2023-02-28T10:51:25;7.18;;;4.82;;
51558;SDS011;61650;48.882;2.092;2023-02-28T10:54:03;6.97;;;5.75;;
51558;SDS011;61650;48.882;2.092;2023-02-28T10:56:30;7.13;;;6.20;;
51558;SDS011;61650;48.882;2.092;2023-02-28T10:58:58;6.60;;;5.05;;
51558;SDS011;61650;48.882;2.092;2023-02-28T11:01:37;7.43;;;5.88;;
51558;SDS011;61650;48.882;2.092;2023-02-28T11:06:58;10.10;;;6.78;;
51558;SDS011;61650;48.882;2.092;2023-02-28T11:12:04;6.13;;;5.40;;
51558;SDS011;61650;48.882;2.092;2023-02-28T11:14:47;6.80;;;4.90;;
51558;SDS011;61650;48.882;2.092;2023-02-28T11:17:22;7.47;;;5.60;;
51558;SDS011;61650;48.882;2.092;2023-02-28T11:19:51;7.40;;;4.93;;
51558;SDS011;61650;48.882;2.092;2023-02-28T11:22:23;6.95;;;5.05;;
51558;SDS011;61650;48.882;2.092;2023-02-28T11:24:53;7.68;;;4.95;;
51558;SDS011;61650;48.882;2.092;2023-02-28T11:29:54;5.82;;;5.22;;
51558;SDS011;61650;48.882;2.092;2023-02-28T11:32:24;5.78;;;4.93;;
51558;SDS011;61650;48.882;2.092;2023-02-28T11:35:04;5.82;;;4.75;;
51558;SDS011;61650;48.882;2.092;2023-02-28T11:37:59;5.68;;;4.20;;
51558;SDS011;61650;48.882;2.092;2023-02-28T11:40:28;5.00;;;4.00;;
51558;SDS011;61650;48.882;2.092;2023-02-28T11:46:14;4.43;;;3.53;;
51558;SDS011;61650;48.882;2.092;2023-02-28T11:54:21;6.30;;;4.63;;
51558;SDS011;61650;48.882;2.092;2023-02-28T12:17:02;6.03;;;5.00;;
51558;SDS011;61650;48.882;2.092;2023-02-28T12:19:44;6.43;;;5.10;;
51558;SDS011;61650;48.882;2.092;2023-02-28T12:28:07;7.10;;;5.28;;
51558;SDS011;61650;48.882;2.092;2023-02-28T12:30:39;6.60;;;5.50;;
51558;SDS011;61650;48.882;2.092;2023-02-28T12:33:15;6.07;;;5.57;;
51558;SDS011;61650;48.882;2.092;2023-02-28T12:38:29;5.32;;;4.82;;
51558;SDS011;61650;48.882;2.092;2023-02-28T12:43:33;5.10;;;4.63;;
51558;SDS011;61650;48.882;2.092;2023-02-28T12:46:35;5.40;;;4.75;;
51558;SDS011;61650;48.882;2.092;2023-02-28T12:49:06;8.20;;;5.50;;
51558;SDS011;61650;48.882;2.092;2023-02-28T12:51:35;5.68;;;5.18;;
51558;SDS011;61650;48.882;2.092;2023-02-28T12:56:42;5.07;;;4.63;;
51558;SDS011;61650;48.882;2.092;2023-02-28T12:59:43;5.72;;;5.10;;
51558;SDS011;61650;48.882;2.092;2023-02-28T13:02:24;5.30;;;4.75;;
51558;SDS011;61650;48.882;2.092;2023-02-28T13:05:00;5.28;;;4.78;;
51558;SDS011;61650;48.882;2.092;2023-02-28T13:10:45;5.60;;;4.57;;
51558;SDS011;61650;48.882;2.092;2023-02-28T13:13:19;5.57;;;4.72;;
51558;SDS011;61650;48.882;2.092;2023-02-28T13:16:06;5.00;;;4.45;;
51558;SDS011;61650;48.882;2.092;2023-02-28T13:18:38;5.78;;;4.95;;
51558;SDS011;61650;48.882;2.092;2023-02-28T13:21:09;5.30;;;4.82;;
51558;SDS011;61650;48.882;2.092;2023-02-28T13:26:21;5.93;;;5.32;;
51558;SDS011;61650;48.882;2.092;2023-02-28T13:31:25;6.35;;;4.50;;
51558;SDS011;61650;48.882;2.092;2023-02-28T13:38:55;8.30;;;6.80;;
51558;SDS011;61650;48.882;2.092;2023-02-28T13:41:47;6.28;;;5.03;;
51558;SDS011;61650;48.882;2.092;2023-02-28T13:49:18;5.75;;;4.85;;
51558;SDS011;61650;48.882;2.092;2023-02-28T13:51:44;6.15;;;5.55;;
51558;SDS011;61650;48.882;2.092;2023-02-28T13:59:49;5.75;;;5.18;;
51558;SDS011;61650;48.882;2.092;2023-02-28T14:05:30;5.85;;;5.35;;
51558;SDS011;61650;48.882;2.092;2023-02-28T14:07:59;6.10;;;4.80;;
51558;SDS011;61650;48.882;2.092;2023-02-28T14:10:31;6.10;;;5.57;;
51558;SDS011;61650;48.882;2.092;2023-02-28T14:13:12;5.80;;;4.95;;
51558;SDS011;61650;48.882;2.092;2023-02-28T14:15:59;5.85;;;5.35;;
51558;SDS011;61650;48.882;2.092;2023-02-28T14:18:29;5.32;;;4.82;;
51558;SDS011;61650;48.882;2.092;2023-02-28T14:23:55;5.85;;;5.22;;
51558;SDS011;61650;48.882;2.092;2023-02-28T14:37:20;6.10;;;5.50;;
51558;SDS011;61650;48.882;2.092;2023-02-28T14:39:51;5.78;;;5.28;;
51558;SDS011;61650;48.882;2.092;2023-02-28T14:45:00;5.20;;;4.60;;
51558;SDS011;61650;48.882;2.092;2023-02-28T14:47:31;8.77;;;5.32;;
51558;SDS011;61650;48.882;2.092;2023-02-28T14:49:58;5.40;;;4.90;;
51558;SDS011;61650;48.882;2.092;2023-02-28T14:52:29;6.70;;;5.18;;
51558;SDS011;61650;48.882;2.092;2023-02-28T14:54:58;5.10;;;4.60;;
51558;SDS011;61650;48.882;2.092;2023-02-28T14:57:27;6.07;;;5.47;;
51558;SDS011;61650;48.882;2.092;2023-02-28T15:02:46;9.70;;;4.90;;
51558;SDS011;61650;48.882;2.092;2023-02-28T15:07:38;6.10;;;4.63;;
51558;SDS011;61650;48.882;2.092;2023-02-28T15:10:12;4.93;;;4.32;;
51558;SDS011;61650;48.882;2.092;2023-02-28T15:15:26;5.50;;;4.70;;
51558;SDS011;61650;48.882;2.092;2023-02-28T15:18:00;6.28;;;4.97;;
51558;SDS011;61650;48.882;2.092;2023-02-28T15:20:30;5.35;;;4.85;;
51558;SDS011;61650;48.882;2.092;2023-02-28T15:22:57;5.95;;;5.15;;
51558;SDS011;61650;48.882;2.092;2023-02-28T15:25:24;5.97;;;5.38;;
51558;SDS011;61650;48.882;2.092;2023-02-28T15:27:52;5.70;;;5.20;;
51558;SDS011;61650;48.882;2.092;2023-02-28T15:30:29;6.10;;;4.93;;
51558;SDS011;61650;48.882;2.092;2023-02-28T15:33:29;6.35;;;4.95;;
51558;SDS011;61650;48.882;2.092;2023-02-28T15:35:50;6.70;;;4.63;;
51558;SDS011;61650;48.882;2.092;2023-02-28T15:38:23;5.40;;;4.90;;
51558;SDS011;61650;48.882;2.092;2023-02-28T15:40:55;9.82;;;7.50;;
51558;SDS011;61650;48.882;2.092;2023-02-28T15:43:30;5.38;;;4.88;;
51558;SDS011;61650;48.882;2.092;2023-02-28T15:46:04;7.63;;;4.85;;
51558;SDS011;61650;48.882;2.092;2023-02-28T15:48:52;6.03;;;4.82;;
51558;SDS011;61650;48.882;2.092;2023-02-28T15:51:20;4.32;;;3.85;;
51558;SDS011;61650;48.882;2.092;2023-02-28T15:53:50;5.57;;;4.97;;
51558;SDS011;61650;48.882;2.092;2023-02-28T15:59:00;5.15;;;4.65;;
51558;SDS011;61650;48.882;2.092;2023-02-28T16:01:29;7.05;;;4.80;;
51558;SDS011;61650;48.882;2.092;2023-02-28T16:04:01;6.32;;;4.57;;
51558;SDS011;61650;48.882;2.092;2023-02-28T16:06:34;5.70;;;4.70;;
51558;SDS011;61650;48.882;2.092;2023-02-28T16:09:06;7.97;;;4.90;;
51558;SDS011;61650;48.882;2.092;2023-02-28T16:11:35;5.25;;;4.75;;
51558;SDS011;61650;48.882;2.092;2023-02-28T16:14:04;6.07;;;5.07;;
51558;SDS011;61650;48.882;2.092;2023-02-28T16:16:30;7.13;;;5.53;;
51558;SDS011;61650;48.882;2.092;2023-02-28T16:18:56;8.00;;;5.40;;
51558;SDS011;61650;48.882;2.092;2023-02-28T16:21:22;5.30;;;4.60;;
51558;SDS011;61650;48.882;2.092;2023-02-28T16:23:48;4.97;;;4.32;;
51558;SDS011;61650;48.882;2.092;2023-02-28T16:26:23;5.83;;;4.80;;
51558;SDS011;61650;48.882;2.092;2023-02-28T16:28:51;7.43;;;5.15;;
51558;SDS011;61650;48.882;2.092;2023-02-28T16:31:17;6.50;;;5.05;;
51558;SDS011;61650;48.882;2.092;2023-02-28T16:33:44;8.30;;;5.37;;
51558;SDS011;61650;48.882;2.092;2023-02-28T16:36:14;6.07;;;5.00;;
51558;SDS011;61650;48.882;2.092;2023-02-28T16:38:41;6.10;;;4.93;;
51558;SDS011;61650;48.882;2.092;2023-02-28T16:41:07;7.00;;;5.20;;
51558;SDS011;61650;48.882;2.092;2023-02-28T16:43:44;5.30;;;4.55;;
51558;SDS011;61650;48.882;2.092;2023-02-28T16:46:11;5.90;;;5.15;;
51558;SDS011;61650;48.882;2.092;2023-02-28T16:48:38;7.10;;;6.40;;
51558;SDS011;61650;48.882;2.092;2023-02-28T16:51:05;7.95;;;5.30;;
51558;SDS011;61650;48.882;2.092;2023-02-28T16:53:33;7.68;;;6.20;;
51558;SDS011;61650;48.882;2.092;2023-02-28T16:55:59;7.60;;;5.77;;
51558;SDS011;61650;48.882;2.092;2023-02-28T16:58:27;6.20;;;5.57;;
51558;SDS011;61650;48.882;2.092;2023-02-28T17:00:52;7.40;;;5.50;;
51558;SDS011;61650;48.882;2.092;2023-02-28T17:03:25;5.80;;;4.93;;
51558;SDS011;61650;48.882;2.092;2023-02-28T17:05:52;6.95;;;5.63;;
51558;SDS011;61650;48.882;2.092;2023-02-28T17:08:18;6.30;;;5.70;;
51558;SDS011;61650;48.882;2.092;2023-02-28T17:10:43;5.90;;;4.83;;
51558;SDS011;61650;48.882;2.092;2023-02-28T17:13:10;6.80;;;6.17;;
51558;SDS011;61650;48.882;2.092;2023-02-28T17:15:36;7.45;;;5.63;;
51558;SDS011;61650;48.882;2.092;2023-02-28T17:18:03;4.80;;;4.30;;
51558;SDS011;61650;48.882;2.092;2023-02-28T17:20:29;8.57;;;5.20;;
51558;SDS011;61650;48.882;2.092;2023-02-28T17:22:55;7.88;;;5.65;;
51558;SDS011;61650;48.882;2.092;2023-02-28T17:25:21;8.07;;;5.90;;
51558;SDS011;61650;48.882;2.092;2023-02-28T17:27:48;6.65;;;5.40;;
51558;SDS011;61650;48.882;2.092;2023-02-28T17:30:17;6.82;;;5.22;;
51558;SDS011;61650;48.882;2.092;2023-02-28T17:32:44;7.10;;;5.30;;
51558;SDS011;61650;48.882;2.092;2023-02-28T17:35:10;5.83;;;5.13;;
51558;SDS011;61650;48.882;2.092;2023-02-28T17:37:36;6.67;;;5.33;;